Weather at Cross Ridge County Hospital Heliport

Public forecast

Using degrees Fahrenheit for public forecast. Weather courtesy of forecast.io.

Closest aviation weather report (METAR) to Cross Ridge County Hospital Heliport

Closest report is West Memphis Municipal Airport, 27.5 nm (51.0 km) E. Retrieved 2020/10/01 16:53 UTC (1 hour ago):

KAWM 011653Z AUTO VRB06KT 10SM CLR 24/03 A3015 RMK AO2 SLP208 T02390033

Closest aviation forecast (TAF) to Cross Ridge County Hospital Heliport

Closest forecast is Jonesboro Municipal Airport, 37.3 nm (69.2 km) N. Retrieved 2020/10/01 12:33 UTC (5 hours ago):

TAF KJBR 011131Z 0112/0212 VRB02KT P6SM SKC FM011600 32009KT P6SM SKC FM020300 35004KT P6SM SKC